»·PEaware :: N213DS KSBD-KSMO

N213DS :: KSBD-KSMO

FLIGHT INFORMATION

Flight Status: Arrived
Operator: Privately registered:
United States
More flights under this callsign
Pilot: Robert D. (13877)
Aircraft: Unknown
(DA40)
More flights by this aircraft type
Origin: KSBD San Bernardino Intl
United States
Destination: KSMO Santa Monica Mun
United States
More flights between these airports :: More routes between these airports
Route: +PDZ V186 DARTS
File this flight plan on PilotEdge
Remarks:
Altitude:
(Current/Filed)
6,000ft
Speed:
(Current/Filed)
125kts
Departed: 25-Jul-20 08:24 AM
Arrived: 25-Jul-20 09:04 AM
Distance/Time
Traveled:
61nm/0:40
Distance/Time
To Go:
Arrived

Flight Plot

Page will automatically refresh every two minutes.


Map Options




Map Legend


Flown Route
Filed Route
Departure Airport
Arrival Airport
Navaid (VOR, NDB)
Fix

Horizontal Profiles

Position Reports

Time Latitude Longitude Heading Altitude Ground
Speed
25-Jul-20 07:52 34.105422 -117.242231 77 1105ft 0kts
25-Jul-20 07:53 34.105422 -117.242231 77 1105ft 0kts
25-Jul-20 07:54 34.105422 -117.242231 77 1105ft 0kts
25-Jul-20 07:55 34.105422 -117.242231 77 1105ft 0kts
25-Jul-20 07:56 34.105422 -117.242231 77 1105ft 0kts
25-Jul-20 07:57 34.105432 -117.242174 84 1105ft 1kts
25-Jul-20 07:58 34.105475 -117.242080 36 1106ft 0kts
25-Jul-20 07:59 34.105475 -117.242080 36 1106ft 0kts
25-Jul-20 08:00 34.105475 -117.242080 36 1106ft 0kts
25-Jul-20 08:01 34.105475 -117.242080 36 1106ft 0kts
25-Jul-20 08:02 34.105475 -117.242080 36 1106ft 0kts
25-Jul-20 08:03 34.105475 -117.242080 36 1106ft 0kts
25-Jul-20 08:04 34.105475 -117.242080 36 1106ft 0kts
25-Jul-20 08:05 34.105475 -117.242080 36 1106ft 0kts
25-Jul-20 08:06 34.105475 -117.242080 36 1106ft 0kts
25-Jul-20 08:07 34.105475 -117.242080 36 1106ft 0kts
25-Jul-20 08:08 34.105475 -117.242080 36 1106ft 0kts
25-Jul-20 08:09 34.105475 -117.242080 36 1106ft 0kts
25-Jul-20 08:10 34.105475 -117.242080 36 1106ft 0kts
25-Jul-20 08:11 34.105475 -117.242080 36 1106ft 0kts
25-Jul-20 08:12 34.105475 -117.242080 36 1106ft 0kts
25-Jul-20 08:13 34.105491 -117.242057 53 1106ft 0kts
25-Jul-20 08:14 34.105501 -117.242151 218 1105ft 0kts
25-Jul-20 08:15 34.103833 -117.241830 153 1105ft 11kts
25-Jul-20 08:16 34.099405 -117.238514 152 1109ft 25kts
25-Jul-20 08:17 34.095716 -117.239650 248 1105ft 17kts
25-Jul-20 08:18 34.093784 -117.246195 250 1090ft 23kts
25-Jul-20 08:19 34.091662 -117.250744 158 1081ft 0kts
25-Jul-20 08:20 34.091662 -117.250744 158 1081ft 0kts
25-Jul-20 08:21 34.091661 -117.250743 159 1081ft 0kts
25-Jul-20 08:22 34.091662 -117.250743 158 1081ft 0kts
25-Jul-20 08:23 34.091206 -117.248645 69 1085ft 42kts
25-Jul-20 08:24 34.098474 -117.223505 73 1847ft 87kts
25-Jul-20 08:25 34.085578 -117.211641 234 2829ft 105kts
25-Jul-20 08:26 34.068683 -117.243971 239 3565ft 112kts
25-Jul-20 08:27 34.051396 -117.276286 236 4381ft 109kts
25-Jul-20 08:28 34.035236 -117.308216 238 5209ft 107kts
25-Jul-20 08:29 34.018769 -117.339727 237 5987ft 112kts
25-Jul-20 08:30 33.999696 -117.376186 237 6008ft 129kts
25-Jul-20 08:31 33.979676 -117.414134 237 6008ft 130kts
25-Jul-20 08:32 33.960220 -117.451081 237 6009ft 131kts
25-Jul-20 08:33 33.940716 -117.488105 237 6011ft 131kts
25-Jul-20 08:34 33.921600 -117.524514 240 6012ft 131kts
25-Jul-20 08:35 33.929074 -117.562318 290 6014ft 130kts
25-Jul-20 08:36 33.941302 -117.600116 293 6015ft 130kts
25-Jul-20 08:37 33.954480 -117.640728 290 6009ft 122kts
25-Jul-20 08:38 33.967076 -117.679603 289 6008ft 122kts
25-Jul-20 08:39 33.979593 -117.718282 289 6005ft 122kts
25-Jul-20 08:40 33.992096 -117.756975 290 6004ft 122kts
25-Jul-20 08:41 34.004684 -117.796035 292 6005ft 128kts
25-Jul-20 08:42 34.017207 -117.834797 292 6005ft 130kts
25-Jul-20 08:43 34.029774 -117.873873 292 6004ft 130kts
25-Jul-20 08:44 34.042107 -117.912243 292 6003ft 130kts
25-Jul-20 08:45 34.054380 -117.950076 293 6001ft 130kts
25-Jul-20 08:46 34.065961 -117.986222 292 5998ft 130kts
25-Jul-20 08:47 34.076019 -118.017694 292 5995ft 130kts
25-Jul-20 08:48 34.087124 -118.052038 293 5992ft 130kts
25-Jul-20 08:49 34.098807 -118.088282 292 5989ft 131kts
25-Jul-20 08:50 34.110797 -118.125932 291 5991ft 131kts
25-Jul-20 08:51 34.122433 -118.162972 291 5518ft 127kts
25-Jul-20 08:52 34.134121 -118.199727 290 4961ft 126kts
25-Jul-20 08:53 34.145774 -118.236440 290 4402ft 125kts
25-Jul-20 08:54 34.153986 -118.271959 246 4290ft 117kts
25-Jul-20 08:55 34.135623 -118.300755 223 3713ft 117kts
25-Jul-20 08:56 34.116830 -118.328691 230 3010ft 118kts
25-Jul-20 08:57 34.099572 -118.351691 225 2841ft 80kts
25-Jul-20 08:58 34.085869 -118.368339 222 2358ft 79kts
25-Jul-20 08:59 34.071771 -118.385053 223 1902ft 81kts
25-Jul-20 09:00 34.056612 -118.403048 223 1414ft 83kts
25-Jul-20 09:01 34.040475 -118.422140 224 897ft 83kts
25-Jul-20 09:02 34.023649 -118.442297 223 360ft 75kts
25-Jul-20 09:03 34.014004 -118.454269 304 130ft 5kts

Navigation Log

Ident Type
Flight plan parsing failed, navigation log unavailable